BTK5001 WALL-WAPP
Flight info
| Callsign | BTK5001 |
|---|---|
| Flight time | 1h 53m |
| Altitude | 35000 |
| Route | KALKU DCT BELBA |
| Aircraft | A320/M-SDE3FGHIRWY/LB1 |
Departure
| Time | 2026-05-06 16:12 |
|---|---|
| Airport | Sultan Aji Muhammad Sulaiman Sepinggan International Airport (WALL) |
Arrival
| Time | 2026-05-06 18:05 |
|---|---|
| Airport | Pattimura International Airport (WAPP) |
| Time | Latitude | Longitude | Altitude | Speed | Heading |
|---|---|---|---|---|---|
| 2026-05-06 15:51 | -1.26281 | 116.89924 | 21 ft | 0 kts | 336° |
| 2026-05-06 16:03 | -1.26285 | 116.89926 | 21 ft | 3 kts | 336° |
| 2026-05-06 16:04 | -1.26310 | 116.89936 | 24 ft | 4 kts | 336° |
| 2026-05-06 16:04 | -1.26335 | 116.89945 | 23 ft | 4 kts | 2° |
| 2026-05-06 16:04 | -1.26357 | 116.89936 | 24 ft | 4 kts | 61° |
| 2026-05-06 16:04 | -1.26359 | 116.89932 | 21 ft | 0 kts | 68° |
| 2026-05-06 16:07 | -1.26339 | 116.89980 | 23 ft | 17 kts | 67° |
| 2026-05-06 16:07 | -1.26278 | 116.90124 | 21 ft | 21 kts | 66° |
| 2026-05-06 16:08 | -1.26229 | 116.90240 | 23 ft | 0 kts | 67° |
| 2026-05-06 16:08 | -1.26225 | 116.90252 | 23 ft | 9 kts | 68° |
| 2026-05-06 16:08 | -1.26207 | 116.90325 | 21 ft | 10 kts | 101° |
| 2026-05-06 16:08 | -1.26238 | 116.90380 | 21 ft | 8 kts | 124° |
| 2026-05-06 16:09 | -1.26267 | 116.90422 | 23 ft | 7 kts | 124° |
| 2026-05-06 16:09 | -1.26300 | 116.90457 | 21 ft | 10 kts | 144° |
| 2026-05-06 16:09 | -1.26358 | 116.90469 | 22 ft | 7 kts | 179° |
| 2026-05-06 16:09 | -1.26399 | 116.90463 | 22 ft | 5 kts | 208° |
| 2026-05-06 16:10 | -1.26417 | 116.90440 | 22 ft | 3 kts | 246° |
| 2026-05-06 16:10 | -1.26419 | 116.90437 | 22 ft | 0 kts | 246° |
| 2026-05-06 16:11 | -1.26486 | 116.90283 | 22 ft | 62 kts | 247° |
| 2026-05-06 16:11 | -1.26741 | 116.89681 | 24 ft | 123 kts | 246° |
| 2026-05-06 16:11 | -1.27135 | 116.88736 | 50 ft | 168 kts | 246° |
| 2026-05-06 16:12 | -1.27593 | 116.87634 | 577 ft | 172 kts | 246° |
| 2026-05-06 16:12 | -1.28064 | 116.86541 | 1185 ft | 169 kts | 246° |
| 2026-05-06 16:12 | -1.28540 | 116.85421 | 1447 ft | 186 kts | 246° |
| 2026-05-06 16:12 | -1.29075 | 116.84159 | 1679 ft | 208 kts | 246° |
| 2026-05-06 16:13 | -1.29662 | 116.82770 | 1980 ft | 227 kts | 246° |
| 2026-05-06 16:13 | -1.30301 | 116.81259 | 2467 ft | 240 kts | 246° |
| 2026-05-06 16:13 | -1.30956 | 116.79706 | 3183 ft | 244 kts | 246° |
| 2026-05-06 16:13 | -1.31621 | 116.78129 | 3850 ft | 249 kts | 246° |
| 2026-05-06 16:14 | -1.32322 | 116.76472 | 4295 ft | 268 kts | 246° |
| 2026-05-06 16:14 | -1.33076 | 116.74728 | 4971 ft | 276 kts | 242° |
| 2026-05-06 16:14 | -1.34326 | 116.73285 | 5679 ft | 280 kts | 211° |
| 2026-05-06 16:14 | -1.36128 | 116.72692 | 5946 ft | 279 kts | 180° |
| 2026-05-06 16:15 | -1.38040 | 116.73047 | 6012 ft | 277 kts | 158° |
| 2026-05-06 16:15 | -1.39766 | 116.73836 | 6015 ft | 276 kts | 151° |
| 2026-05-06 16:15 | -1.41460 | 116.74764 | 6013 ft | 276 kts | 150° |
| 2026-05-06 16:15 | -1.43146 | 116.75680 | 6013 ft | 276 kts | 151° |
| 2026-05-06 16:16 | -1.44853 | 116.76550 | 6012 ft | 277 kts | 153° |
| 2026-05-06 16:16 | -1.46596 | 116.77379 | 6019 ft | 276 kts | 154° |
| 2026-05-06 16:16 | -1.48351 | 116.78168 | 6016 ft | 276 kts | 155° |
| 2026-05-06 16:16 | -1.50115 | 116.78932 | 6014 ft | 276 kts | 156° |
| 2026-05-06 16:17 | -1.51880 | 116.79683 | 6011 ft | 276 kts | 155° |
| 2026-05-06 16:17 | -1.53459 | 116.80729 | 6017 ft | 274 kts | 131° |
| 2026-05-06 16:17 | -1.54345 | 116.82395 | 6027 ft | 275 kts | 101° |
| 2026-05-06 16:17 | -1.54253 | 116.84305 | 6594 ft | 281 kts | 73° |
| 2026-05-06 16:18 | -1.53553 | 116.86128 | 7366 ft | 282 kts | 68° |
| 2026-05-06 16:18 | -1.52799 | 116.87952 | 8121 ft | 285 kts | 68° |
| 2026-05-06 16:18 | -1.52021 | 116.89786 | 8870 ft | 288 kts | 67° |
| 2026-05-06 16:18 | -1.51234 | 116.91627 | 9601 ft | 291 kts | 67° |
| 2026-05-06 16:19 | -1.50435 | 116.93501 | 10236 ft | 296 kts | 67° |
| 2026-05-06 16:19 | -1.49601 | 116.95463 | 10436 ft | 318 kts | 67° |
| 2026-05-06 16:19 | -1.48703 | 116.97582 | 10564 ft | 341 kts | 67° |
| 2026-05-06 16:19 | -1.47757 | 116.99822 | 10757 ft | 358 kts | 67° |
| 2026-05-06 16:20 | -1.46878 | 117.02174 | 11218 ft | 365 kts | 75° |
| 2026-05-06 16:20 | -1.46443 | 117.04679 | 11787 ft | 368 kts | 86° |
| 2026-05-06 16:20 | -1.46326 | 117.07251 | 12379 ft | 372 kts | 88° |
| 2026-05-06 16:20 | -1.46216 | 117.09851 | 12983 ft | 375 kts | 88° |
| 2026-05-06 16:21 | -1.46105 | 117.12434 | 13550 ft | 378 kts | 87° |
| 2026-05-06 16:21 | -1.46026 | 117.14209 | 13901 ft | 380 kts | 87° |
| 2026-05-06 16:21 | -1.45908 | 117.16862 | 14408 ft | 383 kts | 87° |
| 2026-05-06 16:21 | -1.45748 | 117.20406 | 14814 ft | 386 kts | 87° |
| 2026-05-06 16:22 | -1.45627 | 117.23123 | 14873 ft | 386 kts | 87° |
| 2026-05-06 16:22 | -1.45509 | 117.25759 | 14871 ft | 386 kts | 87° |
| 2026-05-06 16:22 | -1.45427 | 117.27574 | 14878 ft | 386 kts | 87° |
| 2026-05-06 16:22 | -1.45275 | 117.31129 | 14875 ft | 386 kts | 87° |
| 2026-05-06 16:23 | -1.45167 | 117.33799 | 14878 ft | 386 kts | 88° |
| 2026-05-06 16:23 | -1.45060 | 117.36489 | 14879 ft | 386 kts | 88° |
| 2026-05-06 16:23 | -1.44986 | 117.38299 | 14879 ft | 386 kts | 88° |
| 2026-05-06 16:23 | -1.44876 | 117.40974 | 14873 ft | 386 kts | 87° |
| 2026-05-06 16:24 | -1.44765 | 117.43619 | 14878 ft | 386 kts | 87° |
| 2026-05-06 16:24 | -1.44653 | 117.46302 | 14880 ft | 386 kts | 87° |
| 2026-05-06 16:24 | -1.44320 | 117.48995 | 14874 ft | 386 kts | 75° |
| 2026-05-06 16:24 | -1.43369 | 117.51453 | 14874 ft | 386 kts | 61° |
| 2026-05-06 16:25 | -1.41801 | 117.53627 | 14911 ft | 388 kts | 46° |
| 2026-05-06 16:25 | -1.39697 | 117.55338 | 15401 ft | 392 kts | 32° |
| 2026-05-06 16:25 | -1.37239 | 117.56524 | 15887 ft | 395 kts | 21° |
| 2026-05-06 16:25 | -1.34668 | 117.57496 | 16370 ft | 397 kts | 21° |
| 2026-05-06 16:26 | -1.32070 | 117.58464 | 16846 ft | 400 kts | 21° |
| 2026-05-06 16:26 | -1.29451 | 117.59430 | 17303 ft | 403 kts | 21° |
| 2026-05-06 16:26 | -1.26811 | 117.60399 | 17735 ft | 405 kts | 21° |
| 2026-05-06 16:26 | -1.24161 | 117.61377 | 17862 ft | 407 kts | 21° |
| 2026-05-06 16:27 | -1.21505 | 117.62359 | 17877 ft | 406 kts | 21° |
| 2026-05-06 16:27 | -1.18855 | 117.63340 | 17877 ft | 406 kts | 21° |
| 2026-05-06 16:27 | -1.16202 | 117.64322 | 17881 ft | 406 kts | 21° |
| 2026-05-06 16:27 | -1.13557 | 117.65301 | 17879 ft | 406 kts | 21° |
| 2026-05-06 16:28 | -1.10918 | 117.66275 | 17882 ft | 406 kts | 21° |
| 2026-05-06 16:28 | -1.08244 | 117.67262 | 18244 ft | 409 kts | 21° |
| 2026-05-06 16:28 | -1.05577 | 117.68308 | 18635 ft | 411 kts | 27° |
| 2026-05-06 16:28 | -1.03165 | 117.69832 | 18993 ft | 413 kts | 40° |
| 2026-05-06 16:29 | -1.01165 | 117.71885 | 19356 ft | 414 kts | 53° |
| 2026-05-06 16:29 | -0.99686 | 117.74363 | 19708 ft | 416 kts | 67° |
| 2026-05-06 16:29 | -0.98821 | 117.77076 | 20055 ft | 417 kts | 80° |
| 2026-05-06 16:29 | -0.98453 | 117.79962 | 20400 ft | 419 kts | 84° |
| 2026-05-06 16:30 | -0.98138 | 117.82863 | 20759 ft | 422 kts | 84° |
| 2026-05-06 16:30 | -0.97925 | 117.84837 | 20996 ft | 423 kts | 84° |
| 2026-05-06 16:30 | -0.97507 | 117.88723 | 21455 ft | 426 kts | 84° |
| 2026-05-06 16:30 | -0.97186 | 117.91682 | 21807 ft | 428 kts | 84° |
| 2026-05-06 16:31 | -0.96863 | 117.94656 | 22150 ft | 431 kts | 84° |
| 2026-05-06 16:31 | -0.96538 | 117.97640 | 22490 ft | 433 kts | 84° |
| 2026-05-06 16:31 | -0.96211 | 118.00634 | 22820 ft | 435 kts | 84° |
| 2026-05-06 16:31 | -0.95880 | 118.03641 | 23148 ft | 437 kts | 84° |
| 2026-05-06 16:32 | -0.95547 | 118.06664 | 23462 ft | 439 kts | 84° |
| 2026-05-06 16:32 | -0.95216 | 118.09701 | 23733 ft | 440 kts | 84° |
| 2026-05-06 16:32 | -0.94886 | 118.12750 | 23994 ft | 442 kts | 84° |
| 2026-05-06 16:32 | -0.94552 | 118.15812 | 24256 ft | 444 kts | 84° |
| 2026-05-06 16:33 | -0.94215 | 118.18876 | 24513 ft | 445 kts | 84° |
| 2026-05-06 16:33 | -0.93875 | 118.21969 | 24770 ft | 447 kts | 84° |
| 2026-05-06 16:33 | -0.93540 | 118.25015 | 25020 ft | 448 kts | 84° |
| 2026-05-06 16:34 | -0.92860 | 118.31231 | 25523 ft | 451 kts | 84° |
| 2026-05-06 16:34 | -0.92519 | 118.34349 | 25776 ft | 453 kts | 84° |
| 2026-05-06 16:34 | -0.92181 | 118.37488 | 26022 ft | 455 kts | 84° |
| 2026-05-06 16:34 | -0.91842 | 118.40635 | 26271 ft | 456 kts | 84° |
| 2026-05-06 16:35 | -0.91496 | 118.43798 | 26510 ft | 458 kts | 84° |
| 2026-05-06 16:35 | -0.91146 | 118.46970 | 26736 ft | 459 kts | 84° |
| 2026-05-06 16:35 | -0.90912 | 118.50150 | 26951 ft | 460 kts | 90° |
| 2026-05-06 16:35 | -0.91157 | 118.53345 | 27163 ft | 461 kts | 99° |
| 2026-05-06 16:36 | -0.91652 | 118.56525 | 27377 ft | 463 kts | 99° |
| 2026-05-06 16:36 | -0.92144 | 118.59712 | 27592 ft | 464 kts | 99° |
| 2026-05-06 16:36 | -0.92631 | 118.62912 | 27809 ft | 466 kts | 99° |
| 2026-05-06 16:36 | -0.93113 | 118.66117 | 28023 ft | 467 kts | 99° |
| 2026-05-06 16:37 | -0.93594 | 118.69334 | 28234 ft | 469 kts | 99° |
| 2026-05-06 16:37 | -0.94081 | 118.72563 | 28433 ft | 470 kts | 99° |
| 2026-05-06 16:37 | -0.94571 | 118.75803 | 28699 ft | 470 kts | 99° |
| 2026-05-06 16:37 | -0.95049 | 118.78981 | 29006 ft | 470 kts | 99° |
| 2026-05-06 16:38 | -0.95536 | 118.82212 | 29323 ft | 469 kts | 99° |
| 2026-05-06 16:38 | -0.96019 | 118.85431 | 29623 ft | 468 kts | 99° |
| 2026-05-06 16:38 | -0.96505 | 118.88645 | 29929 ft | 467 kts | 99° |
| 2026-05-06 16:38 | -0.96991 | 118.91853 | 30195 ft | 467 kts | 99° |
| 2026-05-06 16:39 | -0.97447 | 118.94864 | 30444 ft | 466 kts | 99° |
| 2026-05-06 16:39 | -0.97935 | 118.98065 | 30710 ft | 465 kts | 99° |
| 2026-05-06 16:39 | -0.98422 | 119.01255 | 30982 ft | 464 kts | 99° |
| 2026-05-06 16:39 | -0.98909 | 119.04448 | 31253 ft | 464 kts | 99° |
| 2026-05-06 16:40 | -0.99390 | 119.07624 | 31534 ft | 463 kts | 99° |
| 2026-05-06 16:40 | -0.99872 | 119.10812 | 31809 ft | 462 kts | 99° |
| 2026-05-06 16:40 | -1.00351 | 119.13968 | 32089 ft | 461 kts | 99° |
| 2026-05-06 16:40 | -1.00832 | 119.17143 | 32367 ft | 460 kts | 99° |
| 2026-05-06 16:41 | -1.01309 | 119.20300 | 32665 ft | 460 kts | 99° |
| 2026-05-06 16:41 | -1.01785 | 119.23454 | 32932 ft | 459 kts | 99° |
| 2026-05-06 16:41 | -1.02263 | 119.26610 | 33219 ft | 458 kts | 99° |
| 2026-05-06 16:41 | -1.02735 | 119.29746 | 33495 ft | 457 kts | 99° |
| 2026-05-06 16:42 | -1.03202 | 119.32854 | 33790 ft | 457 kts | 99° |
| 2026-05-06 16:42 | -1.03679 | 119.36024 | 34055 ft | 456 kts | 99° |
| 2026-05-06 16:42 | -1.04147 | 119.39114 | 34310 ft | 455 kts | 99° |
| 2026-05-06 16:42 | -1.04623 | 119.42234 | 34564 ft | 454 kts | 99° |
| 2026-05-06 16:43 | -1.05099 | 119.45353 | 34794 ft | 454 kts | 99° |
| 2026-05-06 16:43 | -1.06047 | 119.51588 | 34895 ft | 455 kts | 99° |
| 2026-05-06 16:44 | -1.06988 | 119.57829 | 34907 ft | 455 kts | 99° |
| 2026-05-06 16:44 | -1.07925 | 119.64081 | 34915 ft | 454 kts | 99° |
| 2026-05-06 16:45 | -1.08863 | 119.70322 | 34923 ft | 454 kts | 99° |
| 2026-05-06 16:45 | -1.09806 | 119.76549 | 34929 ft | 454 kts | 99° |
| 2026-05-06 16:46 | -1.10757 | 119.82786 | 34942 ft | 454 kts | 99° |
| 2026-05-06 16:46 | -1.11696 | 119.89017 | 34958 ft | 453 kts | 99° |
| 2026-05-06 16:47 | -1.12630 | 119.95256 | 34956 ft | 453 kts | 99° |
| 2026-05-06 16:47 | -1.13565 | 120.01450 | 34967 ft | 453 kts | 99° |
| 2026-05-06 16:48 | -1.14498 | 120.07610 | 34962 ft | 452 kts | 99° |
| 2026-05-06 16:48 | -1.15440 | 120.13826 | 34965 ft | 452 kts | 99° |
| 2026-05-06 16:49 | -1.16379 | 120.20045 | 34960 ft | 452 kts | 99° |
| 2026-05-06 16:49 | -1.17313 | 120.26263 | 34956 ft | 452 kts | 99° |
| 2026-05-06 16:50 | -1.18250 | 120.32479 | 34955 ft | 452 kts | 99° |
| 2026-05-06 16:50 | -1.19185 | 120.38680 | 34952 ft | 452 kts | 99° |
| 2026-05-06 16:51 | -1.20120 | 120.44896 | 34939 ft | 452 kts | 99° |
| 2026-05-06 16:51 | -1.21060 | 120.51100 | 34934 ft | 452 kts | 99° |
| 2026-05-06 16:52 | -1.21998 | 120.57305 | 34919 ft | 452 kts | 99° |
| 2026-05-06 16:52 | -1.22925 | 120.63479 | 34916 ft | 451 kts | 99° |
| 2026-05-06 16:53 | -1.23858 | 120.69680 | 34910 ft | 452 kts | 99° |
| 2026-05-06 16:53 | -1.24794 | 120.75898 | 34909 ft | 452 kts | 99° |
| 2026-05-06 16:54 | -1.25732 | 120.82108 | 34906 ft | 452 kts | 99° |
| 2026-05-06 16:54 | -1.26673 | 120.88318 | 34905 ft | 452 kts | 99° |
| 2026-05-06 16:55 | -1.27609 | 120.94526 | 34906 ft | 452 kts | 99° |
| 2026-05-06 16:55 | -1.28540 | 121.00736 | 34888 ft | 453 kts | 98° |
| 2026-05-06 16:56 | -1.29479 | 121.06973 | 34893 ft | 454 kts | 98° |
| 2026-05-06 16:56 | -1.30415 | 121.13174 | 34902 ft | 455 kts | 98° |
| 2026-05-06 16:57 | -1.31359 | 121.19431 | 34911 ft | 456 kts | 98° |
| 2026-05-06 16:57 | -1.32305 | 121.25702 | 34920 ft | 456 kts | 99° |
| 2026-05-06 16:58 | -1.33252 | 121.31978 | 34934 ft | 457 kts | 98° |
| 2026-05-06 16:58 | -1.34194 | 121.38265 | 34938 ft | 457 kts | 99° |
| 2026-05-06 16:59 | -1.35143 | 121.44564 | 34945 ft | 458 kts | 99° |
| 2026-05-06 16:59 | -1.36091 | 121.50862 | 34958 ft | 458 kts | 99° |
| 2026-05-06 17:00 | -1.37036 | 121.57157 | 34963 ft | 459 kts | 99° |
| 2026-05-06 17:00 | -1.37986 | 121.63473 | 34968 ft | 459 kts | 99° |
| 2026-05-06 17:01 | -1.38938 | 121.69778 | 34969 ft | 459 kts | 99° |
| 2026-05-06 17:01 | -1.39880 | 121.76090 | 34957 ft | 459 kts | 99° |
| 2026-05-06 17:02 | -1.40826 | 121.82360 | 34958 ft | 460 kts | 99° |
| 2026-05-06 17:02 | -1.41779 | 121.88688 | 34941 ft | 460 kts | 99° |
| 2026-05-06 17:03 | -1.42730 | 121.95019 | 34934 ft | 461 kts | 99° |
| 2026-05-06 17:03 | -1.43681 | 122.01371 | 34931 ft | 462 kts | 98° |
| 2026-05-06 17:04 | -1.44633 | 122.07721 | 34932 ft | 462 kts | 98° |
| 2026-05-06 17:04 | -1.45584 | 122.14079 | 34940 ft | 463 kts | 98° |
| 2026-05-06 17:05 | -1.46540 | 122.20448 | 34935 ft | 463 kts | 99° |
| 2026-05-06 17:05 | -1.47494 | 122.26808 | 34930 ft | 463 kts | 99° |
| 2026-05-06 17:06 | -1.48451 | 122.33178 | 34935 ft | 463 kts | 99° |
| 2026-05-06 17:06 | -1.49412 | 122.39537 | 34926 ft | 463 kts | 99° |
| 2026-05-06 17:07 | -1.50370 | 122.45895 | 34926 ft | 463 kts | 99° |
| 2026-05-06 17:07 | -1.51320 | 122.52254 | 34923 ft | 462 kts | 99° |
| 2026-05-06 17:08 | -1.52270 | 122.58616 | 34915 ft | 462 kts | 98° |
| 2026-05-06 17:08 | -1.53213 | 122.64922 | 34909 ft | 461 kts | 98° |
| 2026-05-06 17:09 | -1.54161 | 122.71266 | 34907 ft | 461 kts | 98° |
| 2026-05-06 17:09 | -1.54956 | 122.76582 | 34916 ft | 461 kts | 99° |
| 2026-05-06 17:10 | -1.56061 | 122.83944 | 34915 ft | 461 kts | 98° |
| 2026-05-06 17:10 | -1.56854 | 122.89252 | 34906 ft | 461 kts | 98° |
| 2026-05-06 17:11 | -1.57805 | 122.95596 | 34900 ft | 461 kts | 98° |
| 2026-05-06 17:11 | -1.58750 | 123.01935 | 34905 ft | 461 kts | 98° |
| 2026-05-06 17:12 | -1.59690 | 123.08218 | 34897 ft | 461 kts | 98° |
| 2026-05-06 17:12 | -1.60642 | 123.14545 | 34899 ft | 461 kts | 98° |
| 2026-05-06 17:13 | -1.61593 | 123.20884 | 34896 ft | 460 kts | 98° |
| 2026-05-06 17:13 | -1.62541 | 123.27220 | 34889 ft | 461 kts | 98° |
| 2026-05-06 17:14 | -1.63488 | 123.33550 | 34882 ft | 461 kts | 98° |
| 2026-05-06 17:14 | -1.64440 | 123.39891 | 34881 ft | 461 kts | 98° |
| 2026-05-06 17:15 | -1.65389 | 123.46225 | 34881 ft | 461 kts | 98° |
| 2026-05-06 17:15 | -1.66337 | 123.52528 | 34876 ft | 461 kts | 98° |
| 2026-05-06 17:16 | -1.67275 | 123.58862 | 34880 ft | 461 kts | 98° |
| 2026-05-06 17:16 | -1.68216 | 123.65206 | 34877 ft | 461 kts | 98° |
| 2026-05-06 17:17 | -1.69165 | 123.71549 | 34871 ft | 461 kts | 98° |
| 2026-05-06 17:17 | -1.70113 | 123.77893 | 34872 ft | 461 kts | 98° |
| 2026-05-06 17:18 | -1.71063 | 123.84236 | 34873 ft | 462 kts | 98° |
| 2026-05-06 17:18 | -1.72009 | 123.90580 | 34870 ft | 462 kts | 98° |
| 2026-05-06 17:19 | -1.72960 | 123.96936 | 34872 ft | 462 kts | 98° |
| 2026-05-06 17:19 | -1.73901 | 124.03285 | 34874 ft | 462 kts | 98° |
| 2026-05-06 17:20 | -1.74849 | 124.09637 | 34872 ft | 462 kts | 98° |
| 2026-05-06 17:20 | -1.75796 | 124.15981 | 34870 ft | 461 kts | 98° |
| 2026-05-06 17:21 | -1.76744 | 124.22282 | 34870 ft | 461 kts | 98° |
| 2026-05-06 17:21 | -1.77688 | 124.28620 | 34869 ft | 461 kts | 98° |
| 2026-05-06 17:22 | -1.78630 | 124.34968 | 34870 ft | 461 kts | 98° |
| 2026-05-06 17:22 | -1.79567 | 124.41304 | 34871 ft | 461 kts | 98° |
| 2026-05-06 17:23 | -1.80516 | 124.47647 | 34874 ft | 461 kts | 98° |
| 2026-05-06 17:23 | -1.81462 | 124.53995 | 34874 ft | 461 kts | 98° |
| 2026-05-06 17:24 | -1.82401 | 124.60334 | 34879 ft | 461 kts | 98° |
| 2026-05-06 17:24 | -1.83332 | 124.66641 | 34880 ft | 461 kts | 98° |
| 2026-05-06 17:25 | -1.84283 | 124.72974 | 34882 ft | 461 kts | 98° |
| 2026-05-06 17:25 | -1.85234 | 124.79317 | 34880 ft | 461 kts | 98° |
| 2026-05-06 17:26 | -1.86177 | 124.85668 | 34882 ft | 461 kts | 98° |
| 2026-05-06 17:26 | -1.87116 | 124.92006 | 34876 ft | 461 kts | 98° |
| 2026-05-06 17:27 | -1.88053 | 124.98357 | 34871 ft | 462 kts | 98° |
| 2026-05-06 17:27 | -1.88990 | 125.04708 | 34872 ft | 462 kts | 98° |
| 2026-05-06 17:28 | -1.89945 | 125.11069 | 34869 ft | 462 kts | 98° |
| 2026-05-06 17:28 | -1.90898 | 125.17420 | 34870 ft | 463 kts | 98° |
| 2026-05-06 17:29 | -1.91844 | 125.23799 | 34866 ft | 463 kts | 98° |
| 2026-05-06 17:29 | -1.92782 | 125.30178 | 34865 ft | 464 kts | 98° |
| 2026-05-06 17:30 | -1.93727 | 125.36557 | 34866 ft | 464 kts | 98° |
| 2026-05-06 17:30 | -1.94680 | 125.42942 | 34866 ft | 465 kts | 99° |
| 2026-05-06 17:31 | -1.95633 | 125.49337 | 34868 ft | 465 kts | 98° |
| 2026-05-06 17:31 | -1.96572 | 125.55685 | 34866 ft | 465 kts | 98° |
| 2026-05-06 17:32 | -1.97517 | 125.62091 | 34869 ft | 465 kts | 98° |
| 2026-05-06 17:32 | -1.98466 | 125.68484 | 34875 ft | 465 kts | 98° |
| 2026-05-06 17:33 | -1.99418 | 125.74893 | 34879 ft | 465 kts | 98° |
| 2026-05-06 17:33 | -2.00367 | 125.81297 | 34880 ft | 465 kts | 98° |
| 2026-05-06 17:34 | -2.01314 | 125.87696 | 34879 ft | 465 kts | 98° |
| 2026-05-06 17:34 | -2.02261 | 125.94099 | 34876 ft | 465 kts | 98° |
| 2026-05-06 17:35 | -2.03205 | 126.00495 | 34882 ft | 465 kts | 98° |
| 2026-05-06 17:35 | -2.04152 | 126.06887 | 34872 ft | 465 kts | 98° |
| 2026-05-06 17:36 | -2.05554 | 126.16446 | 34882 ft | 465 kts | 99° |
| 2026-05-06 17:36 | -2.06496 | 126.22839 | 34874 ft | 465 kts | 99° |
| 2026-05-06 17:37 | -2.07447 | 126.29229 | 34873 ft | 465 kts | 99° |
| 2026-05-06 17:37 | -2.08403 | 126.35624 | 34882 ft | 465 kts | 99° |
| 2026-05-06 17:38 | -2.09350 | 126.42006 | 34880 ft | 464 kts | 99° |
| 2026-05-06 17:38 | -2.10291 | 126.48398 | 34882 ft | 464 kts | 99° |
| 2026-05-06 17:39 | -2.11226 | 126.54792 | 34883 ft | 464 kts | 99° |
| 2026-05-06 17:39 | -2.12169 | 126.61165 | 34870 ft | 464 kts | 99° |
| 2026-05-06 17:40 | -2.13122 | 126.67548 | 34874 ft | 463 kts | 99° |
| 2026-05-06 17:40 | -2.14059 | 126.73913 | 34877 ft | 463 kts | 99° |
| 2026-05-06 17:41 | -2.14981 | 126.80199 | 34881 ft | 463 kts | 99° |
| 2026-05-06 17:41 | -2.15913 | 126.86564 | 34874 ft | 462 kts | 99° |
| 2026-05-06 17:42 | -2.16852 | 126.92916 | 34875 ft | 462 kts | 99° |
| 2026-05-06 17:42 | -2.17798 | 126.99276 | 34868 ft | 462 kts | 99° |
| 2026-05-06 17:43 | -2.18724 | 127.05579 | 34877 ft | 462 kts | 99° |
| 2026-05-06 17:43 | -2.19649 | 127.11895 | 34874 ft | 462 kts | 99° |
| 2026-05-06 17:44 | -2.20583 | 127.18262 | 34871 ft | 462 kts | 99° |
| 2026-05-06 17:44 | -2.21648 | 127.24597 | 34864 ft | 462 kts | 107° |
| 2026-05-06 17:45 | -2.24474 | 127.30310 | 34863 ft | 460 kts | 128° |
| 2026-05-06 17:45 | -2.26617 | 127.32693 | 34688 ft | 461 kts | 138° |
| 2026-05-06 17:45 | -2.29136 | 127.34656 | 34137 ft | 462 kts | 147° |
| 2026-05-06 17:46 | -2.31876 | 127.36430 | 32915 ft | 473 kts | 148° |
| 2026-05-06 17:46 | -2.34683 | 127.38202 | 31766 ft | 482 kts | 148° |
| 2026-05-06 17:46 | -2.37529 | 127.39977 | 30885 ft | 483 kts | 148° |
| 2026-05-06 17:46 | -2.40380 | 127.41753 | 29986 ft | 485 kts | 148° |
| 2026-05-06 17:47 | -2.43250 | 127.43551 | 28873 ft | 488 kts | 148° |
| 2026-05-06 17:47 | -2.46130 | 127.45367 | 27749 ft | 491 kts | 147° |
| 2026-05-06 17:47 | -2.49019 | 127.47203 | 26813 ft | 490 kts | 147° |
| 2026-05-06 17:47 | -2.51879 | 127.49023 | 25901 ft | 488 kts | 147° |
| 2026-05-06 17:48 | -2.54705 | 127.50823 | 25053 ft | 485 kts | 147° |
| 2026-05-06 17:48 | -2.57571 | 127.52647 | 24284 ft | 481 kts | 147° |
| 2026-05-06 17:48 | -2.60355 | 127.54415 | 23548 ft | 476 kts | 147° |
| 2026-05-06 17:48 | -2.63136 | 127.56177 | 22724 ft | 472 kts | 147° |
| 2026-05-06 17:49 | -2.65930 | 127.57947 | 21928 ft | 467 kts | 147° |
| 2026-05-06 17:49 | -2.68635 | 127.59656 | 21203 ft | 462 kts | 147° |
| 2026-05-06 17:49 | -2.71335 | 127.61364 | 20505 ft | 458 kts | 147° |
| 2026-05-06 17:49 | -2.74017 | 127.63063 | 19831 ft | 453 kts | 147° |
| 2026-05-06 17:50 | -2.76659 | 127.64741 | 19182 ft | 449 kts | 147° |
| 2026-05-06 17:50 | -2.79295 | 127.66415 | 18537 ft | 445 kts | 147° |
| 2026-05-06 17:50 | -2.81898 | 127.68068 | 17888 ft | 441 kts | 147° |
| 2026-05-06 17:50 | -2.84470 | 127.69698 | 17202 ft | 438 kts | 147° |
| 2026-05-06 17:51 | -2.87034 | 127.71322 | 16533 ft | 433 kts | 148° |
| 2026-05-06 17:51 | -2.89573 | 127.72928 | 15877 ft | 430 kts | 148° |
| 2026-05-06 17:51 | -2.92085 | 127.74516 | 15236 ft | 426 kts | 148° |
| 2026-05-06 17:51 | -2.94578 | 127.76098 | 14632 ft | 422 kts | 148° |
| 2026-05-06 17:52 | -2.97061 | 127.77676 | 14024 ft | 419 kts | 148° |
| 2026-05-06 17:52 | -2.99512 | 127.79234 | 13389 ft | 416 kts | 148° |
| 2026-05-06 17:52 | -3.01938 | 127.80777 | 12741 ft | 412 kts | 148° |
| 2026-05-06 17:52 | -3.04351 | 127.82310 | 12117 ft | 407 kts | 148° |
| 2026-05-06 17:53 | -3.06712 | 127.83808 | 11791 ft | 395 kts | 148° |
| 2026-05-06 17:53 | -3.08984 | 127.85246 | 11686 ft | 378 kts | 148° |
| 2026-05-06 17:53 | -3.11163 | 127.86628 | 11544 ft | 363 kts | 148° |
| 2026-05-06 17:53 | -3.13250 | 127.87956 | 11429 ft | 348 kts | 148° |
| 2026-05-06 17:54 | -3.15259 | 127.89233 | 11305 ft | 336 kts | 148° |
| 2026-05-06 17:54 | -3.16546 | 127.90050 | 11224 ft | 328 kts | 148° |
| 2026-05-06 17:54 | -3.19065 | 127.91647 | 11069 ft | 313 kts | 147° |
| 2026-05-06 17:54 | -3.20862 | 127.92845 | 10842 ft | 307 kts | 145° |
| 2026-05-06 17:55 | -3.22013 | 127.93654 | 10643 ft | 305 kts | 144° |
| 2026-05-06 17:55 | -3.24300 | 127.95309 | 10221 ft | 302 kts | 143° |
| 2026-05-06 17:55 | -3.25968 | 127.96528 | 9906 ft | 300 kts | 143° |
| 2026-05-06 17:55 | -3.27099 | 127.97352 | 9688 ft | 298 kts | 143° |
| 2026-05-06 17:56 | -3.29317 | 127.98956 | 9230 ft | 295 kts | 143° |
| 2026-05-06 17:56 | -3.30443 | 127.99765 | 8991 ft | 294 kts | 144° |
| 2026-05-06 17:56 | -3.32633 | 128.01330 | 8504 ft | 291 kts | 144° |
| 2026-05-06 17:56 | -3.33759 | 128.02118 | 8264 ft | 289 kts | 144° |
| 2026-05-06 17:57 | -3.35411 | 128.03250 | 7896 ft | 288 kts | 145° |
| 2026-05-06 17:57 | -3.37066 | 128.04373 | 7549 ft | 286 kts | 144° |
| 2026-05-06 17:57 | -3.38704 | 128.05481 | 7210 ft | 283 kts | 144° |
| 2026-05-06 17:57 | -3.40848 | 128.06934 | 6743 ft | 280 kts | 144° |
| 2026-05-06 17:58 | -3.41918 | 128.07661 | 6506 ft | 279 kts | 144° |
| 2026-05-06 17:58 | -3.42991 | 128.08390 | 6260 ft | 277 kts | 144° |
| 2026-05-06 17:58 | -3.43043 | 128.08426 | 6252 ft | 277 kts | 144° |
| 2026-05-06 17:58 | -3.44537 | 128.09369 | 5876 ft | 275 kts | 146° |
| 2026-05-06 17:59 | -3.46126 | 128.10424 | 5506 ft | 272 kts | 143° |
| 2026-05-06 17:59 | -3.47680 | 128.11501 | 5147 ft | 269 kts | 143° |
| 2026-05-06 17:59 | -3.49203 | 128.12569 | 4792 ft | 266 kts | 143° |
| 2026-05-06 17:59 | -3.50719 | 128.13629 | 4393 ft | 264 kts | 143° |
| 2026-05-06 18:00 | -3.52224 | 128.14672 | 4057 ft | 260 kts | 143° |
| 2026-05-06 18:00 | -3.53701 | 128.15688 | 3752 ft | 256 kts | 143° |
| 2026-05-06 18:00 | -3.55134 | 128.16670 | 3637 ft | 243 kts | 143° |
| 2026-05-06 18:00 | -3.56489 | 128.17595 | 3526 ft | 230 kts | 143° |
| 2026-05-06 18:01 | -3.57789 | 128.18480 | 3437 ft | 220 kts | 143° |
| 2026-05-06 18:01 | -3.59024 | 128.19321 | 3328 ft | 215 kts | 143° |
| 2026-05-06 18:01 | -3.60258 | 128.20159 | 3238 ft | 213 kts | 145° |
| 2026-05-06 18:01 | -3.61601 | 128.20761 | 3030 ft | 213 kts | 162° |
| 2026-05-06 18:02 | -3.63068 | 128.20918 | 2808 ft | 215 kts | 180° |
| 2026-05-06 18:02 | -3.64535 | 128.20600 | 2593 ft | 217 kts | 198° |
| 2026-05-06 18:02 | -3.65812 | 128.19848 | 2394 ft | 211 kts | 216° |
| 2026-05-06 18:02 | -3.66846 | 128.18826 | 2139 ft | 206 kts | 222° |
| 2026-05-06 18:03 | -3.67842 | 128.17826 | 1868 ft | 199 kts | 222° |
| 2026-05-06 18:03 | -3.68655 | 128.16752 | 1615 ft | 189 kts | 245° |
| 2026-05-06 18:03 | -3.68832 | 128.15504 | 1350 ft | 177 kts | 278° |
| 2026-05-06 18:03 | -3.68516 | 128.14364 | 1134 ft | 164 kts | 289° |
| 2026-05-06 18:04 | -3.68180 | 128.13314 | 925 ft | 153 kts | 285° |
| 2026-05-06 18:04 | -3.68163 | 128.12274 | 724 ft | 149 kts | 257° |
| 2026-05-06 18:04 | -3.68622 | 128.11363 | 519 ft | 146 kts | 229° |
| 2026-05-06 18:04 | -3.69343 | 128.10644 | 333 ft | 145 kts | 224° |
| 2026-05-06 18:05 | -3.70058 | 128.09935 | 138 ft | 144 kts | 227° |
| 2026-05-06 18:05 | -3.70755 | 128.09252 | 39 ft | 131 kts | 225° |
| 2026-05-06 18:05 | -3.71067 | 128.08950 | 35 ft | 0 kts | 240° |
| 2026-05-06 18:05 | -3.71068 | 128.08949 | 35 ft | 3 kts | 240° |
| 2026-05-06 18:06 | -3.71089 | 128.08910 | 34 ft | 7 kts | 248° |
| 2026-05-06 18:06 | -3.71089 | 128.08867 | 34 ft | 6 kts | 284° |
| 2026-05-06 18:06 | -3.71052 | 128.08823 | 35 ft | 9 kts | 315° |
| 2026-05-06 18:06 | -3.71017 | 128.08788 | 36 ft | 6 kts | 317° |
| 2026-05-06 18:07 | -3.70957 | 128.08768 | 36 ft | 16 kts | 355° |
| 2026-05-06 18:07 | -3.70825 | 128.08766 | 37 ft | 19 kts | 1° |
| 2026-05-06 18:07 | -3.70734 | 128.08768 | 35 ft | 8 kts | 2° |
| 2026-05-06 18:07 | -3.70703 | 128.08792 | 35 ft | 0 kts | 60° |
| 2026-05-06 18:08 | -3.70682 | 128.08817 | 37 ft | 8 kts | 24° |
| 2026-05-06 18:09 | -3.70672 | 128.08818 | 37 ft | 2 kts | 6° |
| 2026-05-06 18:09 | -3.70647 | 128.08820 | 37 ft | 10 kts | 2° |
| 2026-05-06 18:09 | -3.70642 | 128.08820 | 37 ft | 0 kts | 359° |
| 2026-05-06 18:10 | -3.70638 | 128.08820 | 37 ft | 2 kts | 0° |
| 2026-05-06 18:10 | -3.70630 | 128.08820 | 37 ft | 0 kts | 0° |